sensor_id;sensor_type;location;lat;lon;timestamp;P1;durP1;ratioP1;P2;durP2;ratioP2
36391;SDS011;22639;42.690;23.356;2022-08-19T00:01:28;9.90;;;8.90;;
36391;SDS011;22639;42.690;23.356;2022-08-19T00:03:55;10.38;;;7.10;;
36391;SDS011;22639;42.690;23.356;2022-08-19T00:06:25;9.85;;;8.05;;
36391;SDS011;22639;42.690;23.356;2022-08-19T00:08:52;8.18;;;7.43;;
36391;SDS011;22639;42.690;23.356;2022-08-19T00:11:17;9.07;;;7.35;;
36391;SDS011;22639;42.690;23.356;2022-08-19T00:13:43;8.07;;;7.25;;
36391;SDS011;22639;42.690;23.356;2022-08-19T00:16:11;10.48;;;7.70;;
36391;SDS011;22639;42.690;23.356;2022-08-19T00:18:36;8.52;;;7.40;;
36391;SDS011;22639;42.690;23.356;2022-08-19T00:21:02;8.63;;;7.72;;
36391;SDS011;22639;42.690;23.356;2022-08-19T00:23:28;9.00;;;7.38;;
36391;SDS011;22639;42.690;23.356;2022-08-19T00:25:55;8.32;;;7.00;;
36391;SDS011;22639;42.690;23.356;2022-08-19T00:28:20;9.40;;;6.93;;
36391;SDS011;22639;42.690;23.356;2022-08-19T00:30:46;7.55;;;6.80;;
36391;SDS011;22639;42.690;23.356;2022-08-19T00:33:13;10.65;;;6.88;;
36391;SDS011;22639;42.690;23.356;2022-08-19T00:35:38;8.38;;;7.47;;
36391;SDS011;22639;42.690;23.356;2022-08-19T00:38:04;8.40;;;7.20;;
36391;SDS011;22639;42.690;23.356;2022-08-19T00:40:31;7.60;;;6.80;;
36391;SDS011;22639;42.690;23.356;2022-08-19T00:42:57;8.70;;;7.70;;
36391;SDS011;22639;42.690;23.356;2022-08-19T00:45:24;7.65;;;6.95;;
36391;SDS011;22639;42.690;23.356;2022-08-19T00:47:57;7.63;;;6.57;;
36391;SDS011;22639;42.690;23.356;2022-08-19T00:50:24;7.32;;;6.60;;
36391;SDS011;22639;42.690;23.356;2022-08-19T00:52:50;8.35;;;6.68;;
36391;SDS011;22639;42.690;23.356;2022-08-19T00:55:18;7.82;;;6.53;;
36391;SDS011;22639;42.690;23.356;2022-08-19T00:57:48;6.80;;;6.13;;
36391;SDS011;22639;42.690;23.356;2022-08-19T01:00:20;8.27;;;6.15;;
36391;SDS011;22639;42.690;23.356;2022-08-19T01:02:48;6.65;;;6.00;;
36391;SDS011;22639;42.690;23.356;2022-08-19T01:05:18;7.15;;;5.75;;
36391;SDS011;22639;42.690;23.356;2022-08-19T01:07:52;7.45;;;6.25;;
36391;SDS011;22639;42.690;23.356;2022-08-19T01:10:20;6.70;;;5.18;;
36391;SDS011;22639;42.690;23.356;2022-08-19T01:12:49;5.82;;;5.25;;
36391;SDS011;22639;42.690;23.356;2022-08-19T01:15:17;5.78;;;5.18;;
36391;SDS011;22639;42.690;23.356;2022-08-19T01:17:46;5.53;;;4.95;;
36391;SDS011;22639;42.690;23.356;2022-08-19T01:20:14;7.18;;;6.18;;
36391;SDS011;22639;42.690;23.356;2022-08-19T01:22:44;6.50;;;5.75;;
36391;SDS011;22639;42.690;23.356;2022-08-19T01:25:13;5.90;;;5.35;;
36391;SDS011;22639;42.690;23.356;2022-08-19T01:27:44;6.45;;;5.82;;
36391;SDS011;22639;42.690;23.356;2022-08-19T01:30:14;6.18;;;5.65;;
36391;SDS011;22639;42.690;23.356;2022-08-19T01:32:47;5.47;;;4.97;;
36391;SDS011;22639;42.690;23.356;2022-08-19T01:35:13;6.50;;;5.90;;
36391;SDS011;22639;42.690;23.356;2022-08-19T01:37:52;6.68;;;6.03;;
36391;SDS011;22639;42.690;23.356;2022-08-19T01:40:20;5.47;;;4.97;;
36391;SDS011;22639;42.690;23.356;2022-08-19T01:42:49;6.07;;;5.50;;
36391;SDS011;22639;42.690;23.356;2022-08-19T01:45:16;6.30;;;5.70;;
36391;SDS011;22639;42.690;23.356;2022-08-19T01:47:43;6.82;;;6.13;;
36391;SDS011;22639;42.690;23.356;2022-08-19T01:50:10;6.55;;;5.43;;
36391;SDS011;22639;42.690;23.356;2022-08-19T01:52:37;5.68;;;5.18;;
36391;SDS011;22639;42.690;23.356;2022-08-19T01:55:05;6.25;;;5.70;;
36391;SDS011;22639;42.690;23.356;2022-08-19T01:57:32;6.32;;;5.68;;
36391;SDS011;22639;42.690;23.356;2022-08-19T01:59:58;6.90;;;5.90;;
36391;SDS011;22639;42.690;23.356;2022-08-19T02:02:24;5.80;;;5.30;;
36391;SDS011;22639;42.690;23.356;2022-08-19T02:04:50;6.40;;;5.80;;
36391;SDS011;22639;42.690;23.356;2022-08-19T02:07:18;6.35;;;5.75;;
36391;SDS011;22639;42.690;23.356;2022-08-19T02:09:45;7.00;;;6.13;;
36391;SDS011;22639;42.690;23.356;2022-08-19T02:14:40;7.07;;;5.60;;
36391;SDS011;22639;42.690;23.356;2022-08-19T02:17:06;8.48;;;6.60;;
36391;SDS011;22639;42.690;23.356;2022-08-19T02:19:31;8.10;;;6.32;;
36391;SDS011;22639;42.690;23.356;2022-08-19T02:21:58;7.93;;;6.75;;
36391;SDS011;22639;42.690;23.356;2022-08-19T02:24:24;7.20;;;6.25;;
36391;SDS011;22639;42.690;23.356;2022-08-19T02:26:50;7.53;;;6.82;;
36391;SDS011;22639;42.690;23.356;2022-08-19T02:29:16;7.25;;;6.53;;
36391;SDS011;22639;42.690;23.356;2022-08-19T02:31:43;11.18;;;8.30;;
36391;SDS011;22639;42.690;23.356;2022-08-19T02:34:08;6.85;;;6.25;;
36391;SDS011;22639;42.690;23.356;2022-08-19T02:36:34;7.25;;;6.55;;
36391;SDS011;22639;42.690;23.356;2022-08-19T02:39:00;6.25;;;5.65;;
36391;SDS011;22639;42.690;23.356;2022-08-19T02:41:27;6.80;;;6.10;;
36391;SDS011;22639;42.690;23.356;2022-08-19T02:43:56;7.57;;;6.80;;
36391;SDS011;22639;42.690;23.356;2022-08-19T02:46:26;6.60;;;5.97;;
36391;SDS011;22639;42.690;23.356;2022-08-19T02:48:55;6.80;;;6.03;;
36391;SDS011;22639;42.690;23.356;2022-08-19T02:51:24;7.32;;;6.35;;
36391;SDS011;22639;42.690;23.356;2022-08-19T02:53:52;7.07;;;6.38;;
36391;SDS011;22639;42.690;23.356;2022-08-19T02:56:18;9.52;;;6.57;;
36391;SDS011;22639;42.690;23.356;2022-08-19T02:58:44;7.75;;;6.88;;
36391;SDS011;22639;42.690;23.356;2022-08-19T03:01:11;10.57;;;6.72;;
36391;SDS011;22639;42.690;23.356;2022-08-19T03:03:46;7.90;;;7.10;;
36391;SDS011;22639;42.690;23.356;2022-08-19T03:06:12;12.00;;;7.80;;
36391;SDS011;22639;42.690;23.356;2022-08-19T03:08:40;8.20;;;6.70;;
36391;SDS011;22639;42.690;23.356;2022-08-19T03:11:42;7.95;;;6.65;;
36391;SDS011;22639;42.690;23.356;2022-08-19T03:14:01;9.13;;;7.65;;
36391;SDS011;22639;42.690;23.356;2022-08-19T03:16:30;8.32;;;7.03;;
36391;SDS011;22639;42.690;23.356;2022-08-19T03:18:57;7.30;;;6.65;;
36391;SDS011;22639;42.690;23.356;2022-08-19T03:21:29;7.93;;;6.20;;
36391;SDS011;22639;42.690;23.356;2022-08-19T03:23:58;6.93;;;6.32;;
36391;SDS011;22639;42.690;23.356;2022-08-19T03:26:28;7.97;;;7.18;;
36391;SDS011;22639;42.690;23.356;2022-08-19T03:28:54;8.07;;;6.78;;
36391;SDS011;22639;42.690;23.356;2022-08-19T03:31:20;8.80;;;7.80;;
36391;SDS011;22639;42.690;23.356;2022-08-19T03:33:50;8.45;;;6.70;;
36391;SDS011;22639;42.690;23.356;2022-08-19T03:36:18;8.35;;;6.95;;
36391;SDS011;22639;42.690;23.356;2022-08-19T03:38:48;7.60;;;6.82;;
36391;SDS011;22639;42.690;23.356;2022-08-19T03:41:19;7.30;;;6.43;;
36391;SDS011;22639;42.690;23.356;2022-08-19T03:43:48;8.70;;;6.78;;
36391;SDS011;22639;42.690;23.356;2022-08-19T03:46:29;7.15;;;6.45;;
36391;SDS011;22639;42.690;23.356;2022-08-19T03:48:57;8.23;;;6.63;;
36391;SDS011;22639;42.690;23.356;2022-08-19T03:51:29;7.75;;;6.95;;
36391;SDS011;22639;42.690;23.356;2022-08-19T03:54:00;9.57;;;7.28;;
36391;SDS011;22639;42.690;23.356;2022-08-19T03:56:28;8.13;;;7.32;;
36391;SDS011;22639;42.690;23.356;2022-08-19T03:58:54;12.10;;;8.00;;
36391;SDS011;22639;42.690;23.356;2022-08-19T04:01:23;7.93;;;7.13;;
36391;SDS011;22639;42.690;23.356;2022-08-19T04:03:51;8.10;;;6.95;;
36391;SDS011;22639;42.690;23.356;2022-08-19T04:06:25;7.53;;;6.70;;
36391;SDS011;22639;42.690;23.356;2022-08-19T04:08:52;9.68;;;7.35;;
36391;SDS011;22639;42.690;23.356;2022-08-19T04:11:23;8.00;;;7.03;;
36391;SDS011;22639;42.690;23.356;2022-08-19T04:13:51;9.10;;;6.90;;
36391;SDS011;22639;42.690;23.356;2022-08-19T04:16:18;8.30;;;7.60;;
36391;SDS011;22639;42.690;23.356;2022-08-19T04:18:45;7.57;;;6.70;;
36391;SDS011;22639;42.690;23.356;2022-08-19T04:21:21;7.90;;;7.10;;
36391;SDS011;22639;42.690;23.356;2022-08-19T04:23:48;7.15;;;6.53;;
36391;SDS011;22639;42.690;23.356;2022-08-19T04:26:14;10.00;;;7.07;;
36391;SDS011;22639;42.690;23.356;2022-08-19T04:28:42;7.53;;;6.82;;
36391;SDS011;22639;42.690;23.356;2022-08-19T04:31:13;7.40;;;6.70;;
36391;SDS011;22639;42.690;23.356;2022-08-19T04:33:41;7.38;;;6.55;;
36391;SDS011;22639;42.690;23.356;2022-08-19T04:36:15;7.38;;;6.68;;
36391;SDS011;22639;42.690;23.356;2022-08-19T04:38:42;7.65;;;6.93;;
36391;SDS011;22639;42.690;23.356;2022-08-19T04:41:08;7.80;;;7.03;;
36391;SDS011;22639;42.690;23.356;2022-08-19T04:43:52;8.15;;;7.38;;
36391;SDS011;22639;42.690;23.356;2022-08-19T04:46:17;9.20;;;7.97;;
36391;SDS011;22639;42.690;23.356;2022-08-19T04:48:45;8.40;;;7.60;;
36391;SDS011;22639;42.690;23.356;2022-08-19T04:51:11;8.70;;;7.90;;
36391;SDS011;22639;42.690;23.356;2022-08-19T04:53:39;8.57;;;7.72;;
36391;SDS011;22639;42.690;23.356;2022-08-19T04:56:10;9.45;;;8.40;;
36391;SDS011;22639;42.690;23.356;2022-08-19T04:58:38;9.30;;;8.02;;
36391;SDS011;22639;42.690;23.356;2022-08-19T05:01:07;9.10;;;8.18;;
36391;SDS011;22639;42.690;23.356;2022-08-19T05:03:35;8.95;;;8.05;;
36391;SDS011;22639;42.690;23.356;2022-08-19T05:06:05;8.95;;;8.02;;
36391;SDS011;22639;42.690;23.356;2022-08-19T05:08:33;7.93;;;7.13;;
36391;SDS011;22639;42.690;23.356;2022-08-19T05:11:01;10.07;;;8.45;;
36391;SDS011;22639;42.690;23.356;2022-08-19T05:13:33;9.32;;;8.07;;
36391;SDS011;22639;42.690;23.356;2022-08-19T05:15:59;9.13;;;8.32;;
36391;SDS011;22639;42.690;23.356;2022-08-19T05:18:25;9.00;;;8.13;;
36391;SDS011;22639;42.690;23.356;2022-08-19T05:21:13;9.15;;;8.25;;
36391;SDS011;22639;42.690;23.356;2022-08-19T05:24:00;8.30;;;7.53;;
36391;SDS011;22639;42.690;23.356;2022-08-19T05:26:27;13.88;;;8.35;;
36391;SDS011;22639;42.690;23.356;2022-08-19T05:28:53;10.50;;;8.68;;
36391;SDS011;22639;42.690;23.356;2022-08-19T05:31:19;9.70;;;8.48;;
36391;SDS011;22639;42.690;23.356;2022-08-19T05:33:44;8.68;;;7.78;;
36391;SDS011;22639;42.690;23.356;2022-08-19T05:36:10;9.20;;;8.10;;
36391;SDS011;22639;42.690;23.356;2022-08-19T05:38:36;9.15;;;8.35;;
36391;SDS011;22639;42.690;23.356;2022-08-19T05:41:12;9.20;;;8.15;;
36391;SDS011;22639;42.690;23.356;2022-08-19T05:43:40;8.63;;;7.82;;
36391;SDS011;22639;42.690;23.356;2022-08-19T05:46:06;8.35;;;7.65;;
36391;SDS011;22639;42.690;23.356;2022-08-19T05:48:33;9.45;;;8.48;;
36391;SDS011;22639;42.690;23.356;2022-08-19T05:51:03;8.65;;;7.85;;
36391;SDS011;22639;42.690;23.356;2022-08-19T05:53:31;9.82;;;8.82;;
36391;SDS011;22639;42.690;23.356;2022-08-19T05:55:56;8.82;;;8.02;;
36391;SDS011;22639;42.690;23.356;2022-08-19T05:58:22;8.77;;;7.38;;
36391;SDS011;22639;42.690;23.356;2022-08-19T06:00:48;8.93;;;8.13;;
36391;SDS011;22639;42.690;23.356;2022-08-19T06:03:14;9.77;;;8.77;;
36391;SDS011;22639;42.690;23.356;2022-08-19T06:05:40;9.32;;;8.43;;
36391;SDS011;22639;42.690;23.356;2022-08-19T06:08:06;8.32;;;7.63;;
36391;SDS011;22639;42.690;23.356;2022-08-19T06:10:32;8.40;;;7.68;;
36391;SDS011;22639;42.690;23.356;2022-08-19T06:12:58;8.52;;;7.72;;
36391;SDS011;22639;42.690;23.356;2022-08-19T06:15:23;8.73;;;7.93;;
36391;SDS011;22639;42.690;23.356;2022-08-19T06:17:50;8.85;;;7.95;;
36391;SDS011;22639;42.690;23.356;2022-08-19T06:20:16;8.27;;;7.53;;
36391;SDS011;22639;42.690;23.356;2022-08-19T06:22:44;7.97;;;7.18;;
36391;SDS011;22639;42.690;23.356;2022-08-19T06:25:11;9.13;;;7.13;;
36391;SDS011;22639;42.690;23.356;2022-08-19T06:27:38;9.43;;;7.10;;
36391;SDS011;22639;42.690;23.356;2022-08-19T06:30:04;7.40;;;6.70;;
36391;SDS011;22639;42.690;23.356;2022-08-19T06:32:30;6.85;;;6.25;;
36391;SDS011;22639;42.690;23.356;2022-08-19T06:34:56;6.43;;;5.82;;
36391;SDS011;22639;42.690;23.356;2022-08-19T06:37:21;6.00;;;5.50;;
36391;SDS011;22639;42.690;23.356;2022-08-19T06:39:47;6.95;;;5.45;;
36391;SDS011;22639;42.690;23.356;2022-08-19T06:42:13;9.20;;;6.40;;
36391;SDS011;22639;42.690;23.356;2022-08-19T06:44:42;6.10;;;5.50;;
36391;SDS011;22639;42.690;23.356;2022-08-19T06:47:10;6.82;;;6.22;;
36391;SDS011;22639;42.690;23.356;2022-08-19T06:49:38;5.70;;;5.18;;
36391;SDS011;22639;42.690;23.356;2022-08-19T06:52:04;6.30;;;5.78;;
36391;SDS011;22639;42.690;23.356;2022-08-19T06:54:31;5.88;;;5.47;;
36391;SDS011;22639;42.690;23.356;2022-08-19T06:56:57;6.22;;;5.63;;
36391;SDS011;22639;42.690;23.356;2022-08-19T06:59:24;5.50;;;5.05;;
36391;SDS011;22639;42.690;23.356;2022-08-19T07:01:53;5.78;;;5.28;;
36391;SDS011;22639;42.690;23.356;2022-08-19T07:04:22;7.72;;;5.60;;
36391;SDS011;22639;42.690;23.356;2022-08-19T07:06:50;5.25;;;4.85;;
36391;SDS011;22639;42.690;23.356;2022-08-19T07:09:21;6.72;;;5.82;;
36391;SDS011;22639;42.690;23.356;2022-08-19T07:11:49;5.85;;;5.35;;
36391;SDS011;22639;42.690;23.356;2022-08-19T07:14:23;6.32;;;5.82;;
36391;SDS011;22639;42.690;23.356;2022-08-19T07:16:51;5.47;;;4.97;;
36391;SDS011;22639;42.690;23.356;2022-08-19T07:19:19;5.72;;;5.22;;
36391;SDS011;22639;42.690;23.356;2022-08-19T07:21:47;5.53;;;5.03;;
36391;SDS011;22639;42.690;23.356;2022-08-19T07:24:15;5.97;;;5.47;;
36391;SDS011;22639;42.690;23.356;2022-08-19T07:26:42;5.97;;;5.47;;
36391;SDS011;22639;42.690;23.356;2022-08-19T07:29:08;4.97;;;4.57;;
36391;SDS011;22639;42.690;23.356;2022-08-19T07:31:35;5.28;;;4.78;;
36391;SDS011;22639;42.690;23.356;2022-08-19T07:34:04;6.00;;;5.50;;
36391;SDS011;22639;42.690;23.356;2022-08-19T07:36:35;5.65;;;4.85;;
36391;SDS011;22639;42.690;23.356;2022-08-19T07:39:04;6.50;;;5.20;;
36391;SDS011;22639;42.690;23.356;2022-08-19T07:41:34;5.70;;;5.25;;
36391;SDS011;22639;42.690;23.356;2022-08-19T07:44:02;5.32;;;4.93;;
36391;SDS011;22639;42.690;23.356;2022-08-19T07:46:31;5.50;;;5.10;;
36391;SDS011;22639;42.690;23.356;2022-08-19T07:48:57;6.47;;;5.88;;
36391;SDS011;22639;42.690;23.356;2022-08-19T07:51:24;5.85;;;5.38;;
36391;SDS011;22639;42.690;23.356;2022-08-19T07:53:50;5.65;;;5.15;;
36391;SDS011;22639;42.690;23.356;2022-08-19T07:56:16;5.63;;;5.13;;
36391;SDS011;22639;42.690;23.356;2022-08-19T07:58:44;4.90;;;4.40;;
36391;SDS011;22639;42.690;23.356;2022-08-19T08:01:13;5.43;;;5.03;;
36391;SDS011;22639;42.690;23.356;2022-08-19T08:03:42;5.25;;;4.82;;
36391;SDS011;22639;42.690;23.356;2022-08-19T08:06:27;5.32;;;4.82;;
36391;SDS011;22639;42.690;23.356;2022-08-19T08:09:11;5.88;;;4.80;;
36391;SDS011;22639;42.690;23.356;2022-08-19T08:14:21;4.70;;;4.30;;
36391;SDS011;22639;42.690;23.356;2022-08-19T08:16:49;5.35;;;4.72;;
36391;SDS011;22639;42.690;23.356;2022-08-19T08:19:17;5.30;;;4.72;;
36391;SDS011;22639;42.690;23.356;2022-08-19T08:21:44;7.95;;;4.55;;
36391;SDS011;22639;42.690;23.356;2022-08-19T08:24:10;4.85;;;4.45;;
36391;SDS011;22639;42.690;23.356;2022-08-19T08:26:36;5.57;;;4.85;;
36391;SDS011;22639;42.690;23.356;2022-08-19T08:29:02;4.65;;;4.25;;
36391;SDS011;22639;42.690;23.356;2022-08-19T08:31:28;5.20;;;4.80;;
36391;SDS011;22639;42.690;23.356;2022-08-19T08:33:54;5.55;;;4.47;;
36391;SDS011;22639;42.690;23.356;2022-08-19T08:36:21;5.57;;;5.07;;
36391;SDS011;22639;42.690;23.356;2022-08-19T08:38:46;4.35;;;4.05;;
36391;SDS011;22639;42.690;23.356;2022-08-19T08:44:16;9.20;;;4.45;;
36391;SDS011;22639;42.690;23.356;2022-08-19T08:46:55;5.95;;;5.35;;
36391;SDS011;22639;42.690;23.356;2022-08-19T08:49:41;4.72;;;4.43;;
36391;SDS011;22639;42.690;23.356;2022-08-19T08:52:24;5.55;;;5.15;;
36391;SDS011;22639;42.690;23.356;2022-08-19T08:54:54;5.30;;;4.75;;
36391;SDS011;22639;42.690;23.356;2022-08-19T08:59:53;4.93;;;4.40;;
36391;SDS011;22639;42.690;23.356;2022-08-19T09:02:21;4.43;;;4.03;;
36391;SDS011;22639;42.690;23.356;2022-08-19T09:04:47;3.95;;;3.65;;
36391;SDS011;22639;42.690;23.356;2022-08-19T09:10:10;4.63;;;3.50;;
36391;SDS011;22639;42.690;23.356;2022-08-19T09:15:25;4.22;;;3.83;;
36391;SDS011;22639;42.690;23.356;2022-08-19T09:18:01;4.20;;;3.60;;
36391;SDS011;22639;42.690;23.356;2022-08-19T09:20:28;4.05;;;3.75;;
36391;SDS011;22639;42.690;23.356;2022-08-19T09:22:54;4.32;;;4.03;;
36391;SDS011;22639;42.690;23.356;2022-08-19T09:25:21;4.32;;;4.03;;
36391;SDS011;22639;42.690;23.356;2022-08-19T09:27:47;5.78;;;3.78;;
36391;SDS011;22639;42.690;23.356;2022-08-19T09:30:15;4.18;;;3.78;;
36391;SDS011;22639;42.690;23.356;2022-08-19T09:32:44;4.03;;;3.63;;
36391;SDS011;22639;42.690;23.356;2022-08-19T09:35:12;5.43;;;3.92;;
36391;SDS011;22639;42.690;23.356;2022-08-19T09:37:39;3.83;;;3.50;;
36391;SDS011;22639;42.690;23.356;2022-08-19T09:40:05;5.10;;;3.28;;
36391;SDS011;22639;42.690;23.356;2022-08-19T09:42:32;3.40;;;3.10;;
36391;SDS011;22639;42.690;23.356;2022-08-19T09:44:58;4.22;;;3.53;;
36391;SDS011;22639;42.690;23.356;2022-08-19T09:47:24;3.53;;;3.05;;
36391;SDS011;22639;42.690;23.356;2022-08-19T09:49:49;6.95;;;4.22;;
36391;SDS011;22639;42.690;23.356;2022-08-19T09:52:15;3.10;;;2.80;;
36391;SDS011;22639;42.690;23.356;2022-08-19T09:54:41;9.68;;;2.80;;
36391;SDS011;22639;42.690;23.356;2022-08-19T09:57:07;3.42;;;3.22;;
36391;SDS011;22639;42.690;23.356;2022-08-19T09:59:33;3.47;;;3.17;;
36391;SDS011;22639;42.690;23.356;2022-08-19T10:01:58;4.18;;;3.00;;
36391;SDS011;22639;42.690;23.356;2022-08-19T10:04:24;3.00;;;2.70;;
36391;SDS011;22639;42.690;23.356;2022-08-19T10:07:09;3.55;;;3.25;;
36391;SDS011;22639;42.690;23.356;2022-08-19T10:09:35;3.00;;;2.72;;
36391;SDS011;22639;42.690;23.356;2022-08-19T10:12:00;2.95;;;2.75;;
36391;SDS011;22639;42.690;23.356;2022-08-19T10:14:27;3.30;;;3.10;;
36391;SDS011;22639;42.690;23.356;2022-08-19T10:16:53;3.47;;;3.28;;
36391;SDS011;22639;42.690;23.356;2022-08-19T10:19:18;3.72;;;3.42;;
36391;SDS011;22639;42.690;23.356;2022-08-19T10:21:46;3.25;;;3.05;;
36391;SDS011;22639;42.690;23.356;2022-08-19T10:24:11;2.88;;;2.67;;
36391;SDS011;22639;42.690;23.356;2022-08-19T10:26:37;3.33;;;3.03;;
36391;SDS011;22639;42.690;23.356;2022-08-19T10:29:06;3.10;;;2.90;;
36391;SDS011;22639;42.690;23.356;2022-08-19T10:31:32;3.15;;;2.95;;
36391;SDS011;22639;42.690;23.356;2022-08-19T10:33:59;3.55;;;3.25;;
36391;SDS011;22639;42.690;23.356;2022-08-19T10:36:26;3.30;;;3.00;;
36391;SDS011;22639;42.690;23.356;2022-08-19T10:38:55;4.13;;;3.72;;
36391;SDS011;22639;42.690;23.356;2022-08-19T10:41:24;3.78;;;3.47;;
36391;SDS011;22639;42.690;23.356;2022-08-19T10:43:55;4.22;;;3.90;;
36391;SDS011;22639;42.690;23.356;2022-08-19T10:46:23;4.03;;;3.72;;
36391;SDS011;22639;42.690;23.356;2022-08-19T10:48:51;3.75;;;3.45;;
36391;SDS011;22639;42.690;23.356;2022-08-19T10:51:17;3.80;;;3.50;;
36391;SDS011;22639;42.690;23.356;2022-08-19T10:54:02;5.05;;;3.42;;
36391;SDS011;22639;42.690;23.356;2022-08-19T10:56:28;3.72;;;3.20;;
36391;SDS011;22639;42.690;23.356;2022-08-19T10:59:13;4.22;;;3.83;;
36391;SDS011;22639;42.690;23.356;2022-08-19T11:01:40;3.70;;;3.40;;
36391;SDS011;22639;42.690;23.356;2022-08-19T11:04:07;4.88;;;3.42;;
36391;SDS011;22639;42.690;23.356;2022-08-19T11:06:36;4.72;;;3.58;;
36391;SDS011;22639;42.690;23.356;2022-08-19T11:09:03;3.55;;;3.35;;
36391;SDS011;22639;42.690;23.356;2022-08-19T11:11:30;3.22;;;3.03;;
36391;SDS011;22639;42.690;23.356;2022-08-19T11:13:57;3.88;;;3.45;;
36391;SDS011;22639;42.690;23.356;2022-08-19T11:16:24;3.53;;;3.22;;
36391;SDS011;22639;42.690;23.356;2022-08-19T11:18:53;4.03;;;3.72;;
36391;SDS011;22639;42.690;23.356;2022-08-19T11:21:25;4.80;;;3.38;;
36391;SDS011;22639;42.690;23.356;2022-08-19T11:23:55;4.30;;;3.92;;
36391;SDS011;22639;42.690;23.356;2022-08-19T11:26:22;4.13;;;3.83;;
36391;SDS011;22639;42.690;23.356;2022-08-19T11:28:49;4.38;;;3.97;;
36391;SDS011;22639;42.690;23.356;2022-08-19T11:31:21;3.92;;;3.50;;
36391;SDS011;22639;42.690;23.356;2022-08-19T11:33:49;4.07;;;3.45;;
36391;SDS011;22639;42.690;23.356;2022-08-19T11:36:18;3.55;;;3.25;;
36391;SDS011;22639;42.690;23.356;2022-08-19T11:38:46;4.07;;;3.45;;
36391;SDS011;22639;42.690;23.356;2022-08-19T11:41:14;4.38;;;3.72;;
36391;SDS011;22639;42.690;23.356;2022-08-19T11:43:40;4.18;;;3.88;;
36391;SDS011;22639;42.690;23.356;2022-08-19T11:46:07;4.18;;;3.83;;
36391;SDS011;22639;42.690;23.356;2022-08-19T11:48:35;4.18;;;3.67;;
36391;SDS011;22639;42.690;23.356;2022-08-19T11:51:02;4.20;;;3.80;;
36391;SDS011;22639;42.690;23.356;2022-08-19T11:53:37;4.18;;;3.78;;
36391;SDS011;22639;42.690;23.356;2022-08-19T11:56:03;4.28;;;3.88;;
36391;SDS011;22639;42.690;23.356;2022-08-19T11:58:30;4.35;;;3.95;;
36391;SDS011;22639;42.690;23.356;2022-08-19T12:00:56;4.57;;;4.18;;
36391;SDS011;22639;42.690;23.356;2022-08-19T12:03:22;4.35;;;3.95;;
36391;SDS011;22639;42.690;23.356;2022-08-19T12:05:48;4.82;;;4.43;;
36391;SDS011;22639;42.690;23.356;2022-08-19T12:08:14;4.57;;;4.25;;
36391;SDS011;22639;42.690;23.356;2022-08-19T12:10:40;4.38;;;3.97;;
36391;SDS011;22639;42.690;23.356;2022-08-19T12:13:08;5.13;;;4.30;;
36391;SDS011;22639;42.690;23.356;2022-08-19T12:15:37;6.05;;;4.25;;
36391;SDS011;22639;42.690;23.356;2022-08-19T12:18:06;5.07;;;4.38;;
36391;SDS011;22639;42.690;23.356;2022-08-19T12:20:36;5.07;;;4.25;;
36391;SDS011;22639;42.690;23.356;2022-08-19T12:23:07;4.88;;;4.43;;
36391;SDS011;22639;42.690;23.356;2022-08-19T12:25:35;4.47;;;4.18;;
36391;SDS011;22639;42.690;23.356;2022-08-19T12:28:01;5.13;;;4.63;;
36391;SDS011;22639;42.690;23.356;2022-08-19T12:30:26;7.18;;;4.28;;
36391;SDS011;22639;42.690;23.356;2022-08-19T12:32:52;4.55;;;4.13;;
36391;SDS011;22639;42.690;23.356;2022-08-19T12:35:18;4.28;;;3.97;;
36391;SDS011;22639;42.690;23.356;2022-08-19T12:37:45;5.25;;;4.35;;
36391;SDS011;22639;42.690;23.356;2022-08-19T12:40:12;5.10;;;4.70;;
36391;SDS011;22639;42.690;23.356;2022-08-19T12:42:39;7.13;;;4.68;;
36391;SDS011;22639;42.690;23.356;2022-08-19T12:45:11;4.57;;;4.15;;
36391;SDS011;22639;42.690;23.356;2022-08-19T12:47:37;4.80;;;4.40;;
36391;SDS011;22639;42.690;23.356;2022-08-19T12:50:03;4.68;;;4.28;;
36391;SDS011;22639;42.690;23.356;2022-08-19T12:52:33;6.20;;;4.18;;
36391;SDS011;22639;42.690;23.356;2022-08-19T12:55:01;5.22;;;4.70;;
36391;SDS011;22639;42.690;23.356;2022-08-19T13:00:15;4.45;;;4.13;;
36391;SDS011;22639;42.690;23.356;2022-08-19T13:02:43;4.55;;;4.15;;
36391;SDS011;22639;42.690;23.356;2022-08-19T13:05:13;4.65;;;4.25;;
36391;SDS011;22639;42.690;23.356;2022-08-19T13:07:42;4.55;;;4.25;;
36391;SDS011;22639;42.690;23.356;2022-08-19T13:10:11;4.97;;;4.60;;
36391;SDS011;22639;42.690;23.356;2022-08-19T13:12:40;4.43;;;4.10;;
36391;SDS011;22639;42.690;23.356;2022-08-19T13:15:06;5.22;;;4.72;;
36391;SDS011;22639;42.690;23.356;2022-08-19T13:17:33;4.80;;;4.40;;
36391;SDS011;22639;42.690;23.356;2022-08-19T13:20:00;4.40;;;4.10;;
36391;SDS011;22639;42.690;23.356;2022-08-19T13:22:25;6.20;;;4.75;;
36391;SDS011;22639;42.690;23.356;2022-08-19T13:24:52;6.10;;;5.00;;
36391;SDS011;22639;42.690;23.356;2022-08-19T13:27:17;4.85;;;4.45;;
36391;SDS011;22639;42.690;23.356;2022-08-19T13:29:43;4.53;;;4.20;;
36391;SDS011;22639;42.690;23.356;2022-08-19T13:32:28;4.32;;;3.92;;
36391;SDS011;22639;42.690;23.356;2022-08-19T13:35:12;4.35;;;4.00;;
36391;SDS011;22639;42.690;23.356;2022-08-19T13:37:38;4.50;;;4.20;;
36391;SDS011;22639;42.690;23.356;2022-08-19T13:40:07;8.00;;;4.93;;
36391;SDS011;22639;42.690;23.356;2022-08-19T13:42:38;4.90;;;4.40;;
36391;SDS011;22639;42.690;23.356;2022-08-19T13:45:04;5.47;;;4.97;;
36391;SDS011;22639;42.690;23.356;2022-08-19T13:47:31;5.45;;;4.50;;
36391;SDS011;22639;42.690;23.356;2022-08-19T13:49:59;4.60;;;4.20;;
36391;SDS011;22639;42.690;23.356;2022-08-19T13:52:25;4.78;;;4.10;;
36391;SDS011;22639;42.690;23.356;2022-08-19T13:54:50;5.97;;;4.15;;
36391;SDS011;22639;42.690;23.356;2022-08-19T13:57:16;6.60;;;4.40;;
36391;SDS011;22639;42.690;23.356;2022-08-19T13:59:41;4.82;;;4.30;;
36391;SDS011;22639;42.690;23.356;2022-08-19T14:02:07;4.43;;;4.03;;
36391;SDS011;22639;42.690;23.356;2022-08-19T14:04:32;5.03;;;4.60;;
36391;SDS011;22639;42.690;23.356;2022-08-19T14:06:57;4.78;;;4.35;;
36391;SDS011;22639;42.690;23.356;2022-08-19T14:09:23;5.07;;;4.35;;
36391;SDS011;22639;42.690;23.356;2022-08-19T14:11:48;4.57;;;4.28;;
36391;SDS011;22639;42.690;23.356;2022-08-19T14:14:15;4.90;;;4.50;;
36391;SDS011;22639;42.690;23.356;2022-08-19T14:16:41;5.57;;;4.65;;
36391;SDS011;22639;42.690;23.356;2022-08-19T14:19:07;5.18;;;4.68;;
36391;SDS011;22639;42.690;23.356;2022-08-19T14:21:33;5.35;;;4.95;;
36391;SDS011;22639;42.690;23.356;2022-08-19T14:23:59;5.07;;;4.63;;
36391;SDS011;22639;42.690;23.356;2022-08-19T14:26:24;5.30;;;4.80;;
36391;SDS011;22639;42.690;23.356;2022-08-19T14:28:50;4.65;;;4.25;;
36391;SDS011;22639;42.690;23.356;2022-08-19T14:31:17;5.63;;;5.13;;
36391;SDS011;22639;42.690;23.356;2022-08-19T14:33:44;5.38;;;4.97;;
36391;SDS011;22639;42.690;23.356;2022-08-19T14:36:13;5.68;;;4.35;;
36391;SDS011;22639;42.690;23.356;2022-08-19T14:38:57;5.03;;;4.28;;
36391;SDS011;22639;42.690;23.356;2022-08-19T14:41:25;5.35;;;4.53;;
36391;SDS011;22639;42.690;23.356;2022-08-19T14:43:51;5.28;;;4.65;;
36391;SDS011;22639;42.690;23.356;2022-08-19T14:46:22;5.43;;;4.93;;
36391;SDS011;22639;42.690;23.356;2022-08-19T14:48:50;4.90;;;4.38;;
36391;SDS011;22639;42.690;23.356;2022-08-19T14:51:16;4.97;;;4.57;;
36391;SDS011;22639;42.690;23.356;2022-08-19T14:53:43;5.38;;;4.88;;
36391;SDS011;22639;42.690;23.356;2022-08-19T14:56:13;5.10;;;4.50;;
36391;SDS011;22639;42.690;23.356;2022-08-19T14:58:40;4.97;;;4.57;;